Honey Grove, Texas
Current Conditions -  °F | °C
As of 6:35 AM on Thursday 18 Dec 2014 (Local Time) from KPRX Reporting Station
Overcast Overcast  
Wind Chill: 35°   Ceiling: 500
Heat Index: 39°   Visibility: 10mi
Dew Point: 37°   Wind: 6mph
Humidity: 93%   Direction: 110°ESE
Pressure: 30.16"   Gusts: NA
Location:  33.58°N, 95.91°W
Report Text: KPRX 181235Z 11005KT 10SM OVC005 04/03 A3016 RMK AO1
Loading
Personal Weather Stations






























Interactive Weather Map New forecast layout! Learn more

10-Day Weather Forecast

Advertisements
Track Severe Weather on mobile